sensor_id;sensor_type;location;lat;lon;timestamp;P1;durP1;ratioP1;P2;durP2;ratioP2
10082;SDS011;5080;48.528;8.078;2023-02-13T00:00:28;0.73;;;0.73;;
10082;SDS011;5080;48.528;8.078;2023-02-13T00:02:54;0.70;;;0.70;;
10082;SDS011;5080;48.528;8.078;2023-02-13T00:05:21;0.80;;;0.80;;
10082;SDS011;5080;48.528;8.078;2023-02-13T00:07:48;0.90;;;0.90;;
10082;SDS011;5080;48.528;8.078;2023-02-13T00:10:15;0.90;;;0.90;;
10082;SDS011;5080;48.528;8.078;2023-02-13T00:12:43;0.87;;;0.87;;
10082;SDS011;5080;48.528;8.078;2023-02-13T00:15:10;1.07;;;1.07;;
10082;SDS011;5080;48.528;8.078;2023-02-13T00:17:37;1.40;;;1.17;;
10082;SDS011;5080;48.528;8.078;2023-02-13T00:20:05;1.20;;;1.20;;
10082;SDS011;5080;48.528;8.078;2023-02-13T00:22:33;1.07;;;1.07;;
10082;SDS011;5080;48.528;8.078;2023-02-13T00:25:01;1.10;;;1.10;;
10082;SDS011;5080;48.528;8.078;2023-02-13T00:27:29;0.93;;;0.93;;
10082;SDS011;5080;48.528;8.078;2023-02-13T00:29:57;1.00;;;1.00;;
10082;SDS011;5080;48.528;8.078;2023-02-13T00:32:24;1.00;;;1.00;;
10082;SDS011;5080;48.528;8.078;2023-02-13T00:34:51;1.00;;;1.00;;
10082;SDS011;5080;48.528;8.078;2023-02-13T00:37:18;1.00;;;1.00;;
10082;SDS011;5080;48.528;8.078;2023-02-13T00:39:45;1.10;;;1.10;;
10082;SDS011;5080;48.528;8.078;2023-02-13T00:42:11;1.00;;;1.00;;
10082;SDS011;5080;48.528;8.078;2023-02-13T00:44:38;0.97;;;0.97;;
10082;SDS011;5080;48.528;8.078;2023-02-13T00:47:06;1.20;;;1.20;;
10082;SDS011;5080;48.528;8.078;2023-02-13T00:49:33;1.50;;;1.40;;
10082;SDS011;5080;48.528;8.078;2023-02-13T00:52:00;1.20;;;1.20;;
10082;SDS011;5080;48.528;8.078;2023-02-13T00:54:27;1.23;;;1.23;;
10082;SDS011;5080;48.528;8.078;2023-02-13T00:56:54;1.00;;;1.00;;
10082;SDS011;5080;48.528;8.078;2023-02-13T00:59:20;1.20;;;1.20;;
10082;SDS011;5080;48.528;8.078;2023-02-13T01:01:47;0.90;;;0.90;;
10082;SDS011;5080;48.528;8.078;2023-02-13T01:04:15;1.08;;;1.08;;
10082;SDS011;5080;48.528;8.078;2023-02-13T01:06:42;1.00;;;1.00;;
10082;SDS011;5080;48.528;8.078;2023-02-13T01:09:09;0.90;;;0.90;;
10082;SDS011;5080;48.528;8.078;2023-02-13T01:11:36;1.07;;;1.07;;
10082;SDS011;5080;48.528;8.078;2023-02-13T01:14:03;1.00;;;1.00;;
10082;SDS011;5080;48.528;8.078;2023-02-13T01:16:30;1.00;;;1.00;;
10082;SDS011;5080;48.528;8.078;2023-02-13T01:18:57;1.00;;;1.00;;
10082;SDS011;5080;48.528;8.078;2023-02-13T01:21:25;0.90;;;0.90;;
10082;SDS011;5080;48.528;8.078;2023-02-13T01:23:52;0.80;;;0.80;;
10082;SDS011;5080;48.528;8.078;2023-02-13T01:26:20;0.90;;;0.90;;
10082;SDS011;5080;48.528;8.078;2023-02-13T01:28:50;1.00;;;1.00;;
10082;SDS011;5080;48.528;8.078;2023-02-13T01:31:18;1.13;;;1.13;;
10082;SDS011;5080;48.528;8.078;2023-02-13T01:33:45;0.90;;;0.90;;
10082;SDS011;5080;48.528;8.078;2023-02-13T01:36:12;1.00;;;1.00;;
10082;SDS011;5080;48.528;8.078;2023-02-13T01:38:40;0.87;;;0.87;;
10082;SDS011;5080;48.528;8.078;2023-02-13T01:41:07;0.82;;;0.82;;
10082;SDS011;5080;48.528;8.078;2023-02-13T01:43:42;0.90;;;0.90;;
10082;SDS011;5080;48.528;8.078;2023-02-13T01:46:19;0.80;;;0.80;;
10082;SDS011;5080;48.528;8.078;2023-02-13T01:48:51;0.90;;;0.90;;
10082;SDS011;5080;48.528;8.078;2023-02-13T01:51:22;0.80;;;0.80;;
10082;SDS011;5080;48.528;8.078;2023-02-13T01:53:56;0.90;;;0.90;;
10082;SDS011;5080;48.528;8.078;2023-02-13T01:56:26;1.00;;;1.00;;
10082;SDS011;5080;48.528;8.078;2023-02-13T01:58:55;1.00;;;1.00;;
10082;SDS011;5080;48.528;8.078;2023-02-13T02:01:24;1.00;;;1.00;;
10082;SDS011;5080;48.528;8.078;2023-02-13T02:03:53;1.00;;;1.00;;
10082;SDS011;5080;48.528;8.078;2023-02-13T02:06:24;1.10;;;1.10;;
10082;SDS011;5080;48.528;8.078;2023-02-13T02:08:54;1.00;;;1.00;;
10082;SDS011;5080;48.528;8.078;2023-02-13T02:11:27;1.00;;;1.00;;
10082;SDS011;5080;48.528;8.078;2023-02-13T02:14:00;1.00;;;1.00;;
10082;SDS011;5080;48.528;8.078;2023-02-13T02:16:28;0.90;;;0.90;;
10082;SDS011;5080;48.528;8.078;2023-02-13T02:18:56;1.00;;;1.00;;
10082;SDS011;5080;48.528;8.078;2023-02-13T02:21:32;0.90;;;0.90;;
10082;SDS011;5080;48.528;8.078;2023-02-13T02:24:19;1.00;;;1.00;;
10082;SDS011;5080;48.528;8.078;2023-02-13T02:27:14;0.90;;;0.90;;
10082;SDS011;5080;48.528;8.078;2023-02-13T02:30:02;0.80;;;0.80;;
10082;SDS011;5080;48.528;8.078;2023-02-13T02:32:53;0.83;;;0.83;;
10082;SDS011;5080;48.528;8.078;2023-02-13T02:35:30;0.80;;;0.80;;
10082;SDS011;5080;48.528;8.078;2023-02-13T02:38:07;1.10;;;1.10;;
10082;SDS011;5080;48.528;8.078;2023-02-13T02:40:43;0.88;;;0.88;;
10082;SDS011;5080;48.528;8.078;2023-02-13T02:43:24;1.00;;;1.00;;
10082;SDS011;5080;48.528;8.078;2023-02-13T02:46:00;1.00;;;1.00;;
10082;SDS011;5080;48.528;8.078;2023-02-13T02:48:37;1.00;;;1.00;;
10082;SDS011;5080;48.528;8.078;2023-02-13T02:51:29;1.00;;;1.00;;
10082;SDS011;5080;48.528;8.078;2023-02-13T02:54:02;0.97;;;0.97;;
10082;SDS011;5080;48.528;8.078;2023-02-13T02:56:53;0.90;;;0.90;;
10082;SDS011;5080;48.528;8.078;2023-02-13T02:59:24;1.00;;;1.00;;
10082;SDS011;5080;48.528;8.078;2023-02-13T03:02:11;1.00;;;1.00;;
10082;SDS011;5080;48.528;8.078;2023-02-13T03:05:14;1.00;;;1.00;;
10082;SDS011;5080;48.528;8.078;2023-02-13T03:08:03;1.10;;;1.10;;
10082;SDS011;5080;48.528;8.078;2023-02-13T03:10:31;0.90;;;0.90;;
10082;SDS011;5080;48.528;8.078;2023-02-13T03:13:27;1.07;;;1.07;;
10082;SDS011;5080;48.528;8.078;2023-02-13T03:16:01;1.00;;;1.00;;
10082;SDS011;5080;48.528;8.078;2023-02-13T03:18:46;1.00;;;1.00;;
10082;SDS011;5080;48.528;8.078;2023-02-13T03:21:37;1.63;;;0.90;;
10082;SDS011;5080;48.528;8.078;2023-02-13T03:24:32;0.90;;;0.90;;
10082;SDS011;5080;48.528;8.078;2023-02-13T03:27:10;0.93;;;0.93;;
10082;SDS011;5080;48.528;8.078;2023-02-13T03:30:07;1.00;;;1.00;;
10082;SDS011;5080;48.528;8.078;2023-02-13T03:32:44;0.97;;;0.97;;
10082;SDS011;5080;48.528;8.078;2023-02-13T03:35:22;1.00;;;1.00;;
10082;SDS011;5080;48.528;8.078;2023-02-13T03:38:19;1.10;;;1.10;;
10082;SDS011;5080;48.528;8.078;2023-02-13T03:40:50;0.98;;;0.98;;
10082;SDS011;5080;48.528;8.078;2023-02-13T03:43:41;1.10;;;1.10;;
10082;SDS011;5080;48.528;8.078;2023-02-13T03:46:15;1.20;;;1.20;;
10082;SDS011;5080;48.528;8.078;2023-02-13T03:48:44;1.10;;;1.10;;
10082;SDS011;5080;48.528;8.078;2023-02-13T03:51:31;1.27;;;1.25;;
10082;SDS011;5080;48.528;8.078;2023-02-13T03:54:04;1.43;;;1.33;;
10082;SDS011;5080;48.528;8.078;2023-02-13T03:56:38;1.23;;;1.23;;
10082;SDS011;5080;48.528;8.078;2023-02-13T03:59:25;1.30;;;1.30;;
10082;SDS011;5080;48.528;8.078;2023-02-13T04:01:58;1.10;;;1.10;;
10082;SDS011;5080;48.528;8.078;2023-02-13T04:04:38;1.10;;;1.10;;
10082;SDS011;5080;48.528;8.078;2023-02-13T04:07:12;1.20;;;1.20;;
10082;SDS011;5080;48.528;8.078;2023-02-13T04:09:54;1.30;;;1.30;;
10082;SDS011;5080;48.528;8.078;2023-02-13T04:12:25;1.20;;;1.20;;
10082;SDS011;5080;48.528;8.078;2023-02-13T04:15:01;1.30;;;1.30;;
10082;SDS011;5080;48.528;8.078;2023-02-13T04:17:34;1.20;;;1.20;;
10082;SDS011;5080;48.528;8.078;2023-02-13T04:20:04;1.20;;;1.20;;
10082;SDS011;5080;48.528;8.078;2023-02-13T04:22:32;1.23;;;1.23;;
10082;SDS011;5080;48.528;8.078;2023-02-13T04:25:00;1.10;;;1.10;;
10082;SDS011;5080;48.528;8.078;2023-02-13T04:27:27;1.10;;;1.10;;
10082;SDS011;5080;48.528;8.078;2023-02-13T04:29:54;1.10;;;1.10;;
10082;SDS011;5080;48.528;8.078;2023-02-13T04:32:21;1.13;;;1.13;;
10082;SDS011;5080;48.528;8.078;2023-02-13T04:34:47;1.20;;;1.20;;
10082;SDS011;5080;48.528;8.078;2023-02-13T04:37:14;1.30;;;1.30;;
10082;SDS011;5080;48.528;8.078;2023-02-13T04:39:41;1.30;;;1.27;;
10082;SDS011;5080;48.528;8.078;2023-02-13T04:42:09;1.50;;;1.40;;
10082;SDS011;5080;48.528;8.078;2023-02-13T04:44:36;1.30;;;1.30;;
10082;SDS011;5080;48.528;8.078;2023-02-13T04:47:03;1.35;;;1.35;;
10082;SDS011;5080;48.528;8.078;2023-02-13T04:49:29;1.30;;;1.30;;
10082;SDS011;5080;48.528;8.078;2023-02-13T04:51:56;1.30;;;1.30;;
10082;SDS011;5080;48.528;8.078;2023-02-13T04:54:23;1.30;;;1.30;;
10082;SDS011;5080;48.528;8.078;2023-02-13T04:56:50;1.10;;;1.10;;
10082;SDS011;5080;48.528;8.078;2023-02-13T04:59:19;1.33;;;1.27;;
10082;SDS011;5080;48.528;8.078;2023-02-13T05:01:46;1.60;;;1.50;;
10082;SDS011;5080;48.528;8.078;2023-02-13T05:04:12;1.30;;;1.30;;
10082;SDS011;5080;48.528;8.078;2023-02-13T05:06:41;1.60;;;1.50;;
10082;SDS011;5080;48.528;8.078;2023-02-13T05:09:08;1.52;;;1.42;;
10082;SDS011;5080;48.528;8.078;2023-02-13T05:11:35;1.50;;;1.40;;
10082;SDS011;5080;48.528;8.078;2023-02-13T05:14:02;1.30;;;1.30;;
10082;SDS011;5080;48.528;8.078;2023-02-13T05:16:31;1.13;;;1.02;;
10082;SDS011;5080;48.528;8.078;2023-02-13T05:18:58;1.75;;;1.65;;
10082;SDS011;5080;48.528;8.078;2023-02-13T05:21:25;1.37;;;1.37;;
10082;SDS011;5080;48.528;8.078;2023-02-13T05:24:09;1.40;;;1.40;;
10082;SDS011;5080;48.528;8.078;2023-02-13T05:26:36;1.30;;;1.30;;
10082;SDS011;5080;48.528;8.078;2023-02-13T05:29:03;1.30;;;1.30;;
10082;SDS011;5080;48.528;8.078;2023-02-13T05:31:48;1.20;;;1.20;;
10082;SDS011;5080;48.528;8.078;2023-02-13T05:34:17;1.50;;;1.40;;
10082;SDS011;5080;48.528;8.078;2023-02-13T05:36:44;1.30;;;1.30;;
10082;SDS011;5080;48.528;8.078;2023-02-13T05:39:11;1.30;;;1.30;;
10082;SDS011;5080;48.528;8.078;2023-02-13T05:41:39;1.30;;;1.30;;
10082;SDS011;5080;48.528;8.078;2023-02-13T05:44:06;1.20;;;1.20;;
10082;SDS011;5080;48.528;8.078;2023-02-13T05:46:33;1.10;;;1.10;;
10082;SDS011;5080;48.528;8.078;2023-02-13T05:49:01;1.30;;;1.30;;
10082;SDS011;5080;48.528;8.078;2023-02-13T05:51:28;1.10;;;1.10;;
10082;SDS011;5080;48.528;8.078;2023-02-13T05:53:55;1.42;;;1.38;;
10082;SDS011;5080;48.528;8.078;2023-02-13T05:56:21;1.20;;;1.20;;
10082;SDS011;5080;48.528;8.078;2023-02-13T05:58:49;1.40;;;1.30;;
10082;SDS011;5080;48.528;8.078;2023-02-13T06:01:16;1.17;;;1.17;;
10082;SDS011;5080;48.528;8.078;2023-02-13T06:03:43;1.30;;;1.30;;
10082;SDS011;5080;48.528;8.078;2023-02-13T06:06:12;1.33;;;1.33;;
10082;SDS011;5080;48.528;8.078;2023-02-13T06:08:39;1.10;;;1.10;;
10082;SDS011;5080;48.528;8.078;2023-02-13T06:11:05;1.00;;;1.00;;
10082;SDS011;5080;48.528;8.078;2023-02-13T06:13:32;1.30;;;1.30;;
10082;SDS011;5080;48.528;8.078;2023-02-13T06:15:59;1.20;;;1.20;;
10082;SDS011;5080;48.528;8.078;2023-02-13T06:18:26;1.30;;;1.20;;
10082;SDS011;5080;48.528;8.078;2023-02-13T06:20:53;1.10;;;1.10;;
10082;SDS011;5080;48.528;8.078;2023-02-13T06:23:21;1.30;;;1.30;;
10082;SDS011;5080;48.528;8.078;2023-02-13T06:25:48;1.63;;;1.53;;
10082;SDS011;5080;48.528;8.078;2023-02-13T06:28:15;1.25;;;1.25;;
10082;SDS011;5080;48.528;8.078;2023-02-13T06:30:42;2.40;;;1.30;;
10082;SDS011;5080;48.528;8.078;2023-02-13T06:33:09;1.70;;;1.60;;
10082;SDS011;5080;48.528;8.078;2023-02-13T06:35:36;1.77;;;1.67;;
10082;SDS011;5080;48.528;8.078;2023-02-13T06:38:02;1.80;;;1.70;;
10082;SDS011;5080;48.528;8.078;2023-02-13T06:40:31;1.60;;;1.50;;
10082;SDS011;5080;48.528;8.078;2023-02-13T06:42:57;1.63;;;1.60;;
10082;SDS011;5080;48.528;8.078;2023-02-13T06:45:24;1.97;;;1.87;;
10082;SDS011;5080;48.528;8.078;2023-02-13T06:47:51;2.10;;;1.90;;
10082;SDS011;5080;48.528;8.078;2023-02-13T06:50:18;2.30;;;2.20;;
10082;SDS011;5080;48.528;8.078;2023-02-13T06:52:45;2.50;;;2.30;;
10082;SDS011;5080;48.528;8.078;2023-02-13T06:55:13;2.25;;;2.05;;
10082;SDS011;5080;48.528;8.078;2023-02-13T06:57:42;2.08;;;1.98;;
10082;SDS011;5080;48.528;8.078;2023-02-13T07:00:09;7.20;;;3.13;;
10082;SDS011;5080;48.528;8.078;2023-02-13T07:02:38;2.90;;;2.70;;
10082;SDS011;5080;48.528;8.078;2023-02-13T07:05:05;2.60;;;2.40;;
10082;SDS011;5080;48.528;8.078;2023-02-13T07:07:33;3.47;;;3.17;;
10082;SDS011;5080;48.528;8.078;2023-02-13T07:10:00;3.97;;;3.67;;
10082;SDS011;5080;48.528;8.078;2023-02-13T07:12:27;3.73;;;3.53;;
10082;SDS011;5080;48.528;8.078;2023-02-13T07:14:55;3.70;;;3.40;;
10082;SDS011;5080;48.528;8.078;2023-02-13T07:17:22;3.90;;;3.60;;
10082;SDS011;5080;48.528;8.078;2023-02-13T07:19:50;3.37;;;3.07;;
10082;SDS011;5080;48.528;8.078;2023-02-13T07:22:17;3.40;;;3.10;;
10082;SDS011;5080;48.528;8.078;2023-02-13T07:24:44;3.05;;;2.85;;
10082;SDS011;5080;48.528;8.078;2023-02-13T07:27:11;3.07;;;2.90;;
10082;SDS011;5080;48.528;8.078;2023-02-13T07:29:38;3.10;;;2.90;;
10082;SDS011;5080;48.528;8.078;2023-02-13T07:32:06;2.87;;;2.67;;
10082;SDS011;5080;48.528;8.078;2023-02-13T07:34:33;3.27;;;3.07;;
10082;SDS011;5080;48.528;8.078;2023-02-13T07:37:00;8.40;;;4.30;;
10082;SDS011;5080;48.528;8.078;2023-02-13T07:39:26;6.10;;;3.70;;
10082;SDS011;5080;48.528;8.078;2023-02-13T07:41:55;10.40;;;5.20;;
10082;SDS011;5080;48.528;8.078;2023-02-13T07:44:22;7.37;;;3.50;;
10082;SDS011;5080;48.528;8.078;2023-02-13T07:46:49;8.07;;;3.80;;
10082;SDS011;5080;48.528;8.078;2023-02-13T07:49:17;26.00;;;8.50;;
10082;SDS011;5080;48.528;8.078;2023-02-13T07:51:44;11.60;;;4.67;;
10082;SDS011;5080;48.528;8.078;2023-02-13T07:54:10;23.53;;;7.80;;
10082;SDS011;5080;48.528;8.078;2023-02-13T07:56:37;13.10;;;5.93;;
10082;SDS011;5080;48.528;8.078;2023-02-13T07:59:04;8.88;;;5.72;;
10082;SDS011;5080;48.528;8.078;2023-02-13T08:01:31;11.70;;;6.70;;
10082;SDS011;5080;48.528;8.078;2023-02-13T08:03:58;8.70;;;5.17;;
10082;SDS011;5080;48.528;8.078;2023-02-13T08:06:26;5.40;;;4.78;;
10082;SDS011;5080;48.528;8.078;2023-02-13T08:08:53;5.20;;;4.70;;
10082;SDS011;5080;48.528;8.078;2023-02-13T08:11:34;4.38;;;3.97;;
10082;SDS011;5080;48.528;8.078;2023-02-13T08:14:19;4.83;;;4.33;;
10082;SDS011;5080;48.528;8.078;2023-02-13T08:16:46;4.20;;;3.80;;
10082;SDS011;5080;48.528;8.078;2023-02-13T08:19:12;3.70;;;3.40;;
10082;SDS011;5080;48.528;8.078;2023-02-13T08:21:41;3.30;;;3.10;;
10082;SDS011;5080;48.528;8.078;2023-02-13T08:24:08;3.07;;;2.87;;
10082;SDS011;5080;48.528;8.078;2023-02-13T08:26:35;3.70;;;3.33;;
10082;SDS011;5080;48.528;8.078;2023-02-13T08:29:02;4.13;;;3.73;;
10082;SDS011;5080;48.528;8.078;2023-02-13T08:31:30;4.23;;;3.83;;
10082;SDS011;5080;48.528;8.078;2023-02-13T08:33:57;4.57;;;4.20;;
10082;SDS011;5080;48.528;8.078;2023-02-13T08:36:24;4.13;;;3.83;;
10082;SDS011;5080;48.528;8.078;2023-02-13T08:38:53;4.80;;;4.37;;
10082;SDS011;5080;48.528;8.078;2023-02-13T08:41:19;4.97;;;4.47;;
10082;SDS011;5080;48.528;8.078;2023-02-13T08:43:47;6.23;;;5.17;;
10082;SDS011;5080;48.528;8.078;2023-02-13T08:46:14;10.00;;;4.97;;
10082;SDS011;5080;48.528;8.078;2023-02-13T08:48:41;9.47;;;6.00;;
10082;SDS011;5080;48.528;8.078;2023-02-13T08:51:08;10.93;;;7.47;;
10082;SDS011;5080;48.528;8.078;2023-02-13T08:53:36;20.33;;;7.05;;
10082;SDS011;5080;48.528;8.078;2023-02-13T08:56:05;6.83;;;6.13;;
10082;SDS011;5080;48.528;8.078;2023-02-13T08:58:32;10.37;;;6.43;;
10082;SDS011;5080;48.528;8.078;2023-02-13T09:00:59;26.97;;;8.07;;
10082;SDS011;5080;48.528;8.078;2023-02-13T09:03:29;17.40;;;8.80;;
10082;SDS011;5080;48.528;8.078;2023-02-13T09:05:57;14.93;;;6.60;;
10082;SDS011;5080;48.528;8.078;2023-02-13T09:08:24;15.13;;;6.73;;
10082;SDS011;5080;48.528;8.078;2023-02-13T09:10:54;12.03;;;8.00;;
10082;SDS011;5080;48.528;8.078;2023-02-13T09:13:23;24.00;;;8.43;;
10082;SDS011;5080;48.528;8.078;2023-02-13T09:15:50;11.47;;;6.53;;
10082;SDS011;5080;48.528;8.078;2023-02-13T09:18:16;11.23;;;5.80;;
10082;SDS011;5080;48.528;8.078;2023-02-13T09:20:43;14.10;;;5.47;;
10082;SDS011;5080;48.528;8.078;2023-02-13T09:23:10;5.57;;;5.07;;
10082;SDS011;5080;48.528;8.078;2023-02-13T09:25:37;6.40;;;5.27;;
10082;SDS011;5080;48.528;8.078;2023-02-13T09:28:03;10.18;;;6.72;;
10082;SDS011;5080;48.528;8.078;2023-02-13T09:30:32;24.23;;;9.33;;
10082;SDS011;5080;48.528;8.078;2023-02-13T09:32:58;15.05;;;7.82;;
10082;SDS011;5080;48.528;8.078;2023-02-13T09:35:25;18.77;;;8.10;;
10082;SDS011;5080;48.528;8.078;2023-02-13T09:37:53;7.00;;;5.60;;
10082;SDS011;5080;48.528;8.078;2023-02-13T09:57:00;11.90;;;6.78;;
10082;SDS011;5080;48.528;8.078;2023-02-13T09:59:34;7.38;;;6.35;;
10082;SDS011;5080;48.528;8.078;2023-02-13T10:02:13;10.43;;;6.03;;
10082;SDS011;5080;48.528;8.078;2023-02-13T10:05:00;25.10;;;8.00;;
10082;SDS011;5080;48.528;8.078;2023-02-13T10:07:35;5.10;;;4.60;;
10082;SDS011;5080;48.528;8.078;2023-02-13T10:10:10;5.87;;;4.70;;
10082;SDS011;5080;48.528;8.078;2023-02-13T10:12:54;7.70;;;5.63;;
10082;SDS011;5080;48.528;8.078;2023-02-13T10:15:25;16.25;;;7.55;;
10082;SDS011;5080;48.528;8.078;2023-02-13T10:17:58;16.90;;;5.70;;
10082;SDS011;5080;48.528;8.078;2023-02-13T10:20:30;8.80;;;5.93;;
10082;SDS011;5080;48.528;8.078;2023-02-13T10:23:03;14.63;;;6.43;;
10082;SDS011;5080;48.528;8.078;2023-02-13T10:25:43;5.20;;;4.80;;
10082;SDS011;5080;48.528;8.078;2023-02-13T10:28:16;12.73;;;6.20;;
10082;SDS011;5080;48.528;8.078;2023-02-13T10:30:51;9.10;;;5.87;;
10082;SDS011;5080;48.528;8.078;2023-02-13T10:33:21;19.43;;;7.30;;
10082;SDS011;5080;48.528;8.078;2023-02-13T10:35:52;27.17;;;10.30;;
10082;SDS011;5080;48.528;8.078;2023-02-13T10:38:24;11.38;;;5.50;;
10082;SDS011;5080;48.528;8.078;2023-02-13T10:41:02;4.82;;;4.50;;
10082;SDS011;5080;48.528;8.078;2023-02-13T10:43:36;5.67;;;5.17;;
10082;SDS011;5080;48.528;8.078;2023-02-13T10:46:09;8.63;;;5.87;;
10082;SDS011;5080;48.528;8.078;2023-02-13T10:48:45;7.33;;;5.77;;
10082;SDS011;5080;48.528;8.078;2023-02-13T10:51:20;5.30;;;4.93;;
10082;SDS011;5080;48.528;8.078;2023-02-13T10:53:58;17.60;;;7.65;;
10082;SDS011;5080;48.528;8.078;2023-02-13T10:56:42;6.28;;;5.32;;
10082;SDS011;5080;48.528;8.078;2023-02-13T10:59:17;4.53;;;4.22;;
10082;SDS011;5080;48.528;8.078;2023-02-13T11:01:55;5.83;;;5.23;;
10082;SDS011;5080;48.528;8.078;2023-02-13T11:04:27;8.07;;;5.50;;
10082;SDS011;5080;48.528;8.078;2023-02-13T11:06:55;7.30;;;5.15;;
10082;SDS011;5080;48.528;8.078;2023-02-13T11:09:24;9.13;;;6.30;;
10082;SDS011;5080;48.528;8.078;2023-02-13T11:11:52;14.30;;;7.53;;
10082;SDS011;5080;48.528;8.078;2023-02-13T11:14:21;5.43;;;4.95;;
10082;SDS011;5080;48.528;8.078;2023-02-13T11:16:50;4.63;;;4.32;;
10082;SDS011;5080;48.528;8.078;2023-02-13T11:19:23;5.07;;;4.53;;
10082;SDS011;5080;48.528;8.078;2023-02-13T11:21:56;5.20;;;4.70;;
10082;SDS011;5080;48.528;8.078;2023-02-13T11:24:25;4.87;;;4.57;;
10082;SDS011;5080;48.528;8.078;2023-02-13T11:26:53;7.57;;;5.87;;
10082;SDS011;5080;48.528;8.078;2023-02-13T11:29:27;8.05;;;5.47;;
10082;SDS011;5080;48.528;8.078;2023-02-13T11:32:03;4.97;;;4.57;;
10082;SDS011;5080;48.528;8.078;2023-02-13T11:34:36;5.47;;;5.07;;
10082;SDS011;5080;48.528;8.078;2023-02-13T11:37:08;5.10;;;4.63;;
10082;SDS011;5080;48.528;8.078;2023-02-13T11:39:42;9.37;;;6.07;;
10082;SDS011;5080;48.528;8.078;2023-02-13T11:42:11;6.83;;;4.93;;
10082;SDS011;5080;48.528;8.078;2023-02-13T11:44:42;5.43;;;4.93;;
10082;SDS011;5080;48.528;8.078;2023-02-13T11:47:14;6.37;;;5.47;;
10082;SDS011;5080;48.528;8.078;2023-02-13T11:49:43;5.65;;;5.28;;
10082;SDS011;5080;48.528;8.078;2023-02-13T11:52:21;5.83;;;5.33;;
10082;SDS011;5080;48.528;8.078;2023-02-13T11:54:54;5.43;;;4.93;;
10082;SDS011;5080;48.528;8.078;2023-02-13T11:57:24;5.47;;;5.07;;
10082;SDS011;5080;48.528;8.078;2023-02-13T11:59:57;5.33;;;4.87;;
10082;SDS011;5080;48.528;8.078;2023-02-13T12:02:26;4.70;;;4.40;;
10082;SDS011;5080;48.528;8.078;2023-02-13T12:04:54;7.07;;;5.20;;
10082;SDS011;5080;48.528;8.078;2023-02-13T12:07:41;5.22;;;4.93;;
10082;SDS011;5080;48.528;8.078;2023-02-13T12:10:17;4.47;;;4.18;;
10082;SDS011;5080;48.528;8.078;2023-02-13T12:12:50;5.15;;;4.85;;
10082;SDS011;5080;48.528;8.078;2023-02-13T12:15:22;6.30;;;5.67;;
10082;SDS011;5080;48.528;8.078;2023-02-13T12:17:54;5.05;;;4.75;;
10082;SDS011;5080;48.528;8.078;2023-02-13T12:20:29;4.57;;;4.30;;
10082;SDS011;5080;48.528;8.078;2023-02-13T12:23:06;9.87;;;5.90;;
10082;SDS011;5080;48.528;8.078;2023-02-13T12:25:43;4.97;;;4.67;;
10082;SDS011;5080;48.528;8.078;2023-02-13T12:28:19;5.50;;;5.10;;
10082;SDS011;5080;48.528;8.078;2023-02-13T12:31:03;6.00;;;5.60;;
10082;SDS011;5080;48.528;8.078;2023-02-13T12:33:56;5.75;;;5.28;;
10082;SDS011;5080;48.528;8.078;2023-02-13T12:36:56;5.33;;;5.03;;
10082;SDS011;5080;48.528;8.078;2023-02-13T12:39:33;9.23;;;6.68;;
10082;SDS011;5080;48.528;8.078;2023-02-13T12:42:11;5.15;;;4.85;;
10082;SDS011;5080;48.528;8.078;2023-02-13T12:45:01;4.63;;;4.40;;
10082;SDS011;5080;48.528;8.078;2023-02-13T12:47:38;5.27;;;4.97;;
10082;SDS011;5080;48.528;8.078;2023-02-13T12:50:21;5.20;;;4.90;;
10082;SDS011;5080;48.528;8.078;2023-02-13T12:53:01;4.67;;;4.37;;
10082;SDS011;5080;48.528;8.078;2023-02-13T12:55:44;4.30;;;4.10;;
10082;SDS011;5080;48.528;8.078;2023-02-13T12:58:32;4.83;;;4.53;;
10082;SDS011;5080;48.528;8.078;2023-02-13T13:01:23;5.60;;;5.20;;
10082;SDS011;5080;48.528;8.078;2023-02-13T13:04:08;5.50;;;5.20;;
10082;SDS011;5080;48.528;8.078;2023-02-13T13:06:46;5.17;;;4.87;;
10082;SDS011;5080;48.528;8.078;2023-02-13T13:09:28;5.13;;;4.83;;
10082;SDS011;5080;48.528;8.078;2023-02-13T13:12:14;5.17;;;4.83;;
10082;SDS011;5080;48.528;8.078;2023-02-13T13:14:53;5.60;;;5.20;;
10082;SDS011;5080;48.528;8.078;2023-02-13T13:17:31;9.25;;;6.15;;
10082;SDS011;5080;48.528;8.078;2023-02-13T13:22:58;5.10;;;4.80;;
10082;SDS011;5080;48.528;8.078;2023-02-13T13:25:35;5.40;;;5.10;;
10082;SDS011;5080;48.528;8.078;2023-02-13T13:28:10;5.80;;;5.50;;
10082;SDS011;5080;48.528;8.078;2023-02-13T13:30:40;5.43;;;5.03;;
10082;SDS011;5080;48.528;8.078;2023-02-13T13:33:09;5.63;;;5.17;;
10082;SDS011;5080;48.528;8.078;2023-02-13T13:35:41;5.63;;;5.33;;
10082;SDS011;5080;48.528;8.078;2023-02-13T13:38:13;5.57;;;5.27;;
10082;SDS011;5080;48.528;8.078;2023-02-13T13:40:48;4.90;;;4.60;;
10082;SDS011;5080;48.528;8.078;2023-02-13T13:43:20;5.15;;;4.85;;
10082;SDS011;5080;48.528;8.078;2023-02-13T13:45:56;5.23;;;4.93;;
10082;SDS011;5080;48.528;8.078;2023-02-13T13:51:26;6.40;;;6.00;;
10082;SDS011;5080;48.528;8.078;2023-02-13T13:57:04;6.60;;;6.10;;
10082;SDS011;5080;48.528;8.078;2023-02-13T14:02:51;6.40;;;6.00;;
10082;SDS011;5080;48.528;8.078;2023-02-13T14:11:28;5.93;;;5.53;;
10082;SDS011;5080;48.528;8.078;2023-02-13T14:17:14;5.63;;;5.23;;
10082;SDS011;5080;48.528;8.078;2023-02-13T14:19:42;5.77;;;5.37;;
10082;SDS011;5080;48.528;8.078;2023-02-13T14:22:24;5.47;;;5.17;;
10082;SDS011;5080;48.528;8.078;2023-02-13T14:24:58;6.03;;;5.63;;
10082;SDS011;5080;48.528;8.078;2023-02-13T14:27:27;6.77;;;6.27;;
10082;SDS011;5080;48.528;8.078;2023-02-13T14:29:57;6.63;;;6.13;;
10082;SDS011;5080;48.528;8.078;2023-02-13T14:32:25;5.30;;;5.00;;
10082;SDS011;5080;48.528;8.078;2023-02-13T14:34:56;5.87;;;5.37;;
10082;SDS011;5080;48.528;8.078;2023-02-13T14:37:32;6.50;;;6.10;;
10082;SDS011;5080;48.528;8.078;2023-02-13T14:40:12;6.13;;;5.73;;
10082;SDS011;5080;48.528;8.078;2023-02-13T14:42:56;6.30;;;5.90;;
10082;SDS011;5080;48.528;8.078;2023-02-13T14:45:27;5.73;;;5.33;;
10082;SDS011;5080;48.528;8.078;2023-02-13T14:47:57;5.23;;;4.93;;
10082;SDS011;5080;48.528;8.078;2023-02-13T14:50:32;6.67;;;6.17;;
10082;SDS011;5080;48.528;8.078;2023-02-13T14:53:16;7.40;;;6.80;;
10082;SDS011;5080;48.528;8.078;2023-02-13T14:55:48;7.40;;;6.90;;
10082;SDS011;5080;48.528;8.078;2023-02-13T14:58:21;7.90;;;7.40;;
10082;SDS011;5080;48.528;8.078;2023-02-13T15:00:52;9.30;;;8.50;;
10082;SDS011;5080;48.528;8.078;2023-02-13T15:03:27;7.60;;;7.10;;
10082;SDS011;5080;48.528;8.078;2023-02-13T15:05:56;7.23;;;6.73;;
10082;SDS011;5080;48.528;8.078;2023-02-13T15:08:29;6.63;;;6.23;;
10082;SDS011;5080;48.528;8.078;2023-02-13T15:11:01;6.13;;;5.73;;
10082;SDS011;5080;48.528;8.078;2023-02-13T15:13:31;6.83;;;6.43;;
10082;SDS011;5080;48.528;8.078;2023-02-13T15:15:59;7.93;;;7.33;;
10082;SDS011;5080;48.528;8.078;2023-02-13T15:18:29;6.47;;;6.07;;
10082;SDS011;5080;48.528;8.078;2023-02-13T15:21:00;6.60;;;6.13;;
10082;SDS011;5080;48.528;8.078;2023-02-13T15:23:27;5.90;;;5.50;;
10082;SDS011;5080;48.528;8.078;2023-02-13T15:25:56;6.97;;;6.47;;
10082;SDS011;5080;48.528;8.078;2023-02-13T15:28:26;7.37;;;6.87;;
10082;SDS011;5080;48.528;8.078;2023-02-13T15:30:55;6.80;;;6.40;;
10082;SDS011;5080;48.528;8.078;2023-02-13T15:33:23;6.73;;;6.27;;
10082;SDS011;5080;48.528;8.078;2023-02-13T15:35:55;7.77;;;7.17;;
10082;SDS011;5080;48.528;8.078;2023-02-13T15:38:24;7.73;;;7.23;;
10082;SDS011;5080;48.528;8.078;2023-02-13T15:40:56;7.77;;;7.27;;
10082;SDS011;5080;48.528;8.078;2023-02-13T15:43:29;18.23;;;11.13;;
10082;SDS011;5080;48.528;8.078;2023-02-13T15:46:01;7.37;;;6.87;;
10082;SDS011;5080;48.528;8.078;2023-02-13T15:48:30;8.07;;;7.53;;
10082;SDS011;5080;48.528;8.078;2023-02-13T15:50:59;7.37;;;6.77;;
10082;SDS011;5080;48.528;8.078;2023-02-13T15:53:27;8.37;;;7.77;;
10082;SDS011;5080;48.528;8.078;2023-02-13T15:55:55;8.00;;;7.47;;
10082;SDS011;5080;48.528;8.078;2023-02-13T15:58:25;8.90;;;8.30;;
10082;SDS011;5080;48.528;8.078;2023-02-13T16:01:02;8.47;;;7.87;;
10082;SDS011;5080;48.528;8.078;2023-02-13T16:03:32;9.47;;;8.67;;
10082;SDS011;5080;48.528;8.078;2023-02-13T16:06:00;8.37;;;7.77;;